Time;durP1;ratioP1;P1;durP2;ratioP2;P2;SDS_P1;SDS_P2;PMS_P1;PMS_P2;Temp;Humidity;BMP_temperature;BMP_pressure;BME280_temperature;BME280_humidity;BME280_pressure;Samples;Min_cycle;Max_cycle;Signal;HPM_P1;HPM_P2
2021/12/27 08:16:40;;;;;;;11.50;5.90;;;;;;;;;;6236257;22;20019;-78
2021/12/27 08:19:34;;;;;;;14.90;6.03;;;;;;;;;;6251091;23;20086;-78
2021/12/27 08:22:05;;;;;;;16.88;6.38;;;;;;;;;;6232655;23;20054;-78
2021/12/27 08:24:35;;;;;;;13.23;6.22;;;3.70;99.90;;;;;;6228134;23;20051;-78
2021/12/27 08:27:04;;;;;;;23.40;8.50;;;5.50;99.90;;;;;;6247855;23;20116;-78
2021/12/27 08:29:33;;;;;;;13.55;6.38;;;5.60;99.90;;;;;;6225857;23;20024;-77
2021/12/27 08:32:02;;;;;;;15.23;6.55;;;5.70;99.90;;;;;;6244359;23;20024;-78
2021/12/27 08:34:36;;;;;;;18.42;6.45;;;5.80;99.90;;;;;;6248400;23;20027;-78
2021/12/27 08:37:08;;;;;;;13.88;6.03;;;5.80;99.90;;;;;;6263917;23;20027;-79
2021/12/27 08:39:38;;;;;;;15.77;6.73;;;5.90;99.90;;;;;;6235612;23;20020;-79
2021/12/27 08:42:08;;;;;;;20.23;6.15;;;6.00;99.90;;;;;;6255435;22;20027;-78
2021/12/27 08:44:36;;;;;;;18.35;6.78;;;5.70;99.90;;;;;;6244967;23;20028;-77
2021/12/27 08:47:05;;;;;;;15.63;6.22;;;5.90;99.90;;;;;;6253509;23;20102;-79
2021/12/27 08:56:45;;;;;;;15.27;5.93;;;5.90;99.90;;;;;;6140718;23;20040;-80
2021/12/27 08:59:17;;;;;;;17.60;6.35;;;5.90;99.90;;;;;;6144245;23;20021;-80
2021/12/27 09:01:46;;;;;;;13.38;5.82;;;5.80;99.90;;;;;;6175579;23;20040;-80
2021/12/27 09:04:15;;;;;;;17.95;6.85;;;5.60;99.90;;;;;;6149977;23;20021;-79
2021/12/27 09:06:44;;;;;;;14.43;5.20;;;5.80;99.90;;;;;;6197514;23;20487;-80
2021/12/27 09:09:18;;;;;;;19.35;7.38;;;5.80;99.90;;;;;;6180441;23;20048;-82
2021/12/27 09:12:16;;;;;;;13.82;6.47;;;5.50;99.90;;;;;;6130708;23;20120;-81
2021/12/27 09:14:59;;;;;;;17.77;6.30;;;5.50;99.90;;;;;;6153053;23;20025;-80
2021/12/27 09:20:27;;;;;;;17.63;6.70;;;5.90;99.90;;;;;;6178247;23;20025;-81
2021/12/27 09:22:57;;;;;;;16.85;6.25;;;6.00;99.90;;;;;;6176173;23;20021;-81
2021/12/27 09:25:48;;;;;;;17.30;6.05;;;6.10;99.90;;;;;;6122394;23;20029;-82
2021/12/27 09:28:49;;;;;;;12.77;6.22;;;6.10;99.90;;;;;;6233459;23;20042;-81
2021/12/27 09:35:15;;;;;;;14.40;7.03;;;6.20;99.90;;;;;;6211586;23;20028;-82
2021/12/27 09:43:01;;;;;;;13.32;4.75;;;6.30;99.90;;;;;;6243953;23;20075;-84
2021/12/27 09:46:19;;;;;;;12.75;5.45;;;6.10;99.90;;;;;;6268063;22;20016;-84
2021/12/27 09:49:59;;;;;;;17.20;7.82;;;6.10;99.90;;;;;;6221244;23;20008;-82
2021/12/27 09:52:35;;;;;;;16.23;5.23;;;6.00;99.90;;;;;;6235613;23;20072;-83
2021/12/27 09:55:26;;;;;;;17.58;6.60;;;6.10;99.90;;;;;;6234406;23;20108;-82
2021/12/27 09:57:56;;;;;;;21.95;7.57;;;6.20;99.90;;;;;;6209099;23;20039;-80
2021/12/27 10:03:19;;;;;;;14.07;6.40;;;6.10;99.90;;;;;;6211064;23;20028;-81
2021/12/27 10:05:50;;;;;;;17.07;5.80;;;6.20;99.90;;;;;;6210846;23;20086;-81
2021/12/27 10:08:21;;;;;;;9.90;5.22;;;6.20;99.90;;;;;;6211329;23;20027;-84
2021/12/27 10:14:43;;;;;;;15.18;5.68;;;6.10;99.90;;;;;;6235828;23;20072;-81
2021/12/27 10:17:41;;;;;;;16.35;6.10;;;6.00;99.90;;;;;;6234274;23;20012;-85
2021/12/27 10:20:28;;;;;;;14.13;6.47;;;5.90;99.90;;;;;;6235649;23;20056;-80
2021/12/27 10:23:04;;;;;;;18.70;6.65;;;5.70;99.90;;;;;;6234028;23;20024;-81
2021/12/27 10:28:25;;;;;;;16.33;5.40;;;5.90;99.90;;;;;;6197774;23;20016;-83
2021/12/27 10:31:06;;;;;;;14.77;6.13;;;5.90;99.90;;;;;;6209203;23;20025;-84
2021/12/27 10:33:36;;;;;;;21.03;6.60;;;6.00;99.90;;;;;;6204308;23;20017;-81
2021/12/27 10:36:09;;;;;;;12.45;6.85;;;5.60;99.90;;;;;;6181672;23;20040;-80
2021/12/27 10:38:41;;;;;;;15.32;6.30;;;5.80;99.90;;;;;;6210903;23;20009;-78
2021/12/27 10:41:12;;;;;;;13.70;6.68;;;5.80;99.90;;;;;;6210955;23;20073;-80
2021/12/27 10:43:43;;;;;;;14.77;5.43;;;5.90;99.90;;;;;;6210571;23;20016;-80
2021/12/27 10:46:15;;;;;;;15.60;6.37;;;6.10;99.90;;;;;;6211758;23;20017;-79
2021/12/27 10:48:47;;;;;;;14.73;6.97;;;5.80;99.90;;;;;;6210863;23;20009;-81
2021/12/27 10:51:49;;;;;;;19.02;6.13;;;6.00;99.90;;;;;;6210594;23;20017;-80
2021/12/27 10:54:18;;;;;;;17.50;7.00;;;6.10;99.90;;;;;;6211445;23;20040;-80
2021/12/27 10:56:54;;;;;;;15.27;6.93;;;6.20;99.90;;;;;;6209256;23;20044;-80
2021/12/27 10:59:23;;;;;;;12.80;5.27;;;6.30;99.90;;;;;;6185801;23;20021;-81
2021/12/27 11:01:52;;;;;;;13.80;6.15;;;6.20;99.90;;;;;;6185338;23;20025;-81
2021/12/27 11:04:21;;;;;;;13.73;6.72;;;6.40;99.90;;;;;;6210616;23;20009;-81
2021/12/27 11:06:54;;;;;;;14.05;5.72;;;6.50;99.90;;;;;;6210400;23;20008;-80
2021/12/27 11:09:23;;;;;;;14.32;6.72;;;6.40;99.90;;;;;;6207932;23;20017;-80
2021/12/27 11:19:40;;;;;;;14.57;6.68;;;6.30;99.90;;;;;;6183378;23;20029;-80
2021/12/27 11:22:10;;;;;;;17.73;5.97;;;6.40;99.90;;;;;;6204338;23;20029;-79
2021/12/27 11:31:17;;;;;;;14.15;5.15;;;6.50;99.90;;;;;;6217698;22;20008;-78
2021/12/27 11:48:42;;;;;;;15.17;6.43;;;6.20;99.90;;;;;;6205601;23;20085;-82
2021/12/27 12:08:02;;;;;;;21.27;6.55;;;6.40;99.90;;;;;;6173543;23;20022;-79
2021/12/27 12:10:31;;;;;;;17.60;7.03;;;6.30;99.90;;;;;;6157943;23;20026;-79
2021/12/27 12:13:20;;;;;;;14.65;5.53;;;6.30;99.90;;;;;;6131752;23;20079;-78
2021/12/27 12:16:14;;;;;;;14.95;6.03;;;6.40;99.90;;;;;;6127952;23;20026;-76
2021/12/27 12:19:55;;;;;;;10.43;5.03;;;6.30;99.90;;;;;;6103143;23;20025;-76
2021/12/27 12:22:55;;;;;;;11.57;4.30;;;6.40;99.90;;;;;;6128081;23;20025;-76
2021/12/27 12:25:25;;;;;;;10.70;5.63;;;6.50;99.90;;;;;;6103615;23;20113;-76
2021/12/27 12:27:57;;;;;;;14.10;5.80;;;6.60;99.90;;;;;;6125092;23;20029;-76
2021/12/27 12:30:51;;;;;;;11.88;6.15;;;6.40;99.90;;;;;;6126504;23;20031;-77
2021/12/27 12:33:22;;;;;;;13.37;5.70;;;6.40;99.90;;;;;;6126412;23;20080;-76
2021/12/27 12:35:54;;;;;;;15.07;6.10;;;6.30;99.90;;;;;;6127364;23;20472;-76
2021/12/27 12:38:25;;;;;;;16.83;5.47;;;6.20;99.90;;;;;;6151973;23;20029;-76
2021/12/27 12:41:12;;;;;;;15.35;5.00;;;6.20;99.90;;;;;;6126298;23;20024;-76
2021/12/27 12:43:43;;;;;;;12.10;5.28;;;6.30;99.90;;;;;;6102201;23;20022;-77
2021/12/27 12:46:18;;;;;;;13.83;5.13;;;6.20;99.90;;;;;;6102962;23;20021;-76
2021/12/27 12:49:18;;;;;;;13.07;4.68;;;6.30;99.90;;;;;;6151199;23;20021;-75
2021/12/27 12:51:50;;;;;;;9.77;4.63;;;6.30;99.90;;;;;;6102680;23;20025;-76
2021/12/27 12:54:26;;;;;;;10.45;4.82;;;6.50;99.90;;;;;;6127036;23;20028;-76
2021/12/27 12:56:57;;;;;;;9.35;5.05;;;6.40;99.90;;;;;;6127888;23;20030;-76
2021/12/27 12:59:29;;;;;;;13.43;5.97;;;6.60;99.90;;;;;;6127824;23;20361;-76
2021/12/27 13:02:01;;;;;;;14.45;5.72;;;6.60;99.90;;;;;;6127343;23;20022;-77
2021/12/27 13:04:42;;;;;;;8.75;3.90;;;6.50;99.90;;;;;;6128509;23;20017;-78
2021/12/27 13:07:14;;;;;;;14.30;5.50;;;6.40;99.90;;;;;;6128843;23;20131;-77
2021/12/27 13:09:45;;;;;;;11.18;5.15;;;6.30;99.90;;;;;;6129034;23;20022;-76
2021/12/27 13:12:21;;;;;;;12.10;4.83;;;6.30;99.90;;;;;;6129117;23;20092;-77
2021/12/27 13:14:49;;;;;;;12.40;6.03;;;6.40;99.90;;;;;;6128817;23;20021;-78
2021/12/27 13:17:22;;;;;;;10.50;4.85;;;6.50;99.90;;;;;;6129015;23;20353;-76
2021/12/27 13:20:02;;;;;;;11.88;4.53;;;6.50;99.90;;;;;;6153934;23;20017;-78
2021/12/27 13:23:02;;;;;;;14.50;4.10;;;6.50;99.90;;;;;;6129354;23;20084;-79
2021/12/27 13:25:34;;;;;;;14.03;5.60;;;6.40;99.90;;;;;;6155021;23;20080;-76
2021/12/27 13:28:13;;;;;;;10.90;5.45;;;6.40;99.90;;;;;;6128714;23;20060;-77
2021/12/27 13:31:02;;;;;;;13.75;4.85;;;6.30;99.90;;;;;;6128535;23;20033;-79
2021/12/27 13:33:41;;;;;;;11.32;4.47;;;6.40;99.90;;;;;;6128777;23;20168;-77
2021/12/27 13:36:11;;;;;;;10.65;3.78;;;6.40;99.90;;;;;;6154664;23;20076;-77
2021/12/27 13:38:45;;;;;;;16.60;5.43;;;6.20;99.90;;;;;;6128401;23;20036;-77
2021/12/27 13:41:23;;;;;;;12.20;4.80;;;6.30;99.90;;;;;;6128359;23;20025;-77
2021/12/27 13:43:55;;;;;;;10.02;3.83;;;6.20;99.90;;;;;;6128891;23;20317;-78
2021/12/27 13:46:25;;;;;;;12.18;4.13;;;6.20;99.90;;;;;;6128683;23;20035;-78
2021/12/27 13:49:24;;;;;;;8.65;3.92;;;6.20;99.90;;;;;;6128892;23;20080;-77
2021/12/27 13:51:58;;;;;;;9.80;4.40;;;6.20;99.90;;;;;;6128330;23;20449;-79
2021/12/27 13:54:40;;;;;;;13.73;5.05;;;6.30;99.90;;;;;;6128825;23;20029;-79
2021/12/27 13:57:08;;;;;;;8.60;3.97;;;6.30;99.90;;;;;;6129903;23;20040;-77
2021/12/27 13:59:39;;;;;;;9.98;4.20;;;6.30;99.90;;;;;;6129637;23;20017;-77
2021/12/27 14:02:09;;;;;;;9.35;4.10;;;6.40;99.90;;;;;;6129730;23;20026;-78
2021/12/27 14:04:37;;;;;;;13.10;4.07;;;6.40;99.90;;;;;;6156123;23;20432;-77
2021/12/27 14:07:07;;;;;;;12.02;3.97;;;6.40;99.90;;;;;;6155482;23;20053;-77
2021/12/27 14:09:38;;;;;;;13.68;4.10;;;6.50;99.90;;;;;;6129689;23;20026;-78
2021/12/27 14:12:09;;;;;;;9.13;3.85;;;6.30;99.90;;;;;;6130311;23;20029;-77
2021/12/27 14:14:41;;;;;;;10.68;4.28;;;6.50;99.90;;;;;;6130070;23;20028;-78
2021/12/27 14:17:11;;;;;;;14.03;5.57;;;6.60;99.90;;;;;;6129078;23;20108;-77
2021/12/27 14:19:41;;;;;;;11.30;3.83;;;6.50;99.90;;;;;;6154473;23;20025;-77
2021/12/27 14:22:14;;;;;;;11.65;3.85;;;6.60;99.90;;;;;;6130159;23;20026;-78
2021/12/27 14:24:55;;;;;;;10.45;4.38;;;6.60;99.90;;;;;;6156785;23;20022;-77
2021/12/27 14:27:27;;;;;;;12.20;4.18;;;6.50;99.90;;;;;;6130330;23;20026;-77
2021/12/27 14:30:18;;;;;;;8.33;3.77;;;6.70;99.90;;;;;;6157271;23;20018;-77
2021/12/27 14:33:02;;;;;;;10.95;4.05;;;6.70;99.90;;;;;;6130901;23;20793;-77
2021/12/27 14:35:33;;;;;;;10.23;4.80;;;6.30;99.90;;;;;;6131227;23;20018;-77
2021/12/27 14:38:04;;;;;;;12.98;4.65;;;6.60;99.90;;;;;;6130120;23;20029;-78
2021/12/27 14:40:35;;;;;;;9.50;4.10;;;6.60;99.90;;;;;;6129674;23;20026;-77
2021/12/27 14:43:04;;;;;;;9.23;3.30;;;6.60;99.90;;;;;;6129067;23;20100;-77
2021/12/27 14:45:38;;;;;;;16.17;4.80;;;6.70;99.90;;;;;;6104869;23;20025;-77
2021/12/27 14:48:08;;;;;;;11.75;4.53;;;6.70;99.90;;;;;;6128849;23;20021;-77
2021/12/27 14:50:37;;;;;;;11.68;5.07;;;6.60;99.90;;;;;;6129861;23;20022;-77
2021/12/27 14:53:07;;;;;;;11.05;3.92;;;6.70;99.90;;;;;;6131177;23;20026;-78
2021/12/27 14:56:00;;;;;;;10.03;3.43;;;6.70;99.90;;;;;;6131939;23;20022;-79
2021/12/27 14:58:29;;;;;;;11.65;4.38;;;6.70;99.90;;;;;;6109187;23;20024;-78
2021/12/27 15:01:06;;;;;;;8.63;3.85;;;6.60;99.90;;;;;;6132822;23;20029;-79
2021/12/27 15:03:37;;;;;;;13.15;4.47;;;6.70;99.90;;;;;;6130981;23;20025;-77
2021/12/27 15:06:10;;;;;;;12.00;4.13;;;6.70;99.90;;;;;;6155018;23;20030;-78
2021/12/27 15:08:38;;;;;;;6.97;2.60;;;6.60;99.90;;;;;;6132288;23;20028;-79
2021/12/27 15:11:10;;;;;;;8.35;3.13;;;6.60;99.90;;;;;;6155113;23;20018;-79
2021/12/27 15:13:38;;;;;;;9.02;3.15;;;6.40;99.90;;;;;;6154356;23;20023;-79
2021/12/27 15:16:11;;;;;;;8.48;3.78;;;6.30;99.90;;;;;;6128488;23;20018;-80
2021/12/27 15:18:41;;;;;;;8.88;3.60;;;6.30;99.90;;;;;;6157309;23;20295;-80
2021/12/27 15:21:11;;;;;;;8.37;3.20;;;6.10;99.90;;;;;;6106247;23;20318;-79
2021/12/27 15:23:39;;;;;;;7.35;3.40;;;6.20;99.90;;;;;;6128790;23;20037;-80
2021/12/27 15:26:08;;;;;;;11.48;4.32;;;6.30;99.90;;;;;;6159992;23;20029;-80
2021/12/27 15:28:37;;;;;;;10.75;4.40;;;6.30;99.90;;;;;;6171312;23;20028;-81
2021/12/27 15:31:09;;;;;;;10.68;4.18;;;6.40;99.90;;;;;;6157667;23;20171;-80
2021/12/27 15:33:40;;;;;;;10.37;3.30;;;6.40;99.90;;;;;;6129633;23;20025;-80
2021/12/27 15:36:09;;;;;;;10.70;4.70;;;6.50;99.90;;;;;;6155237;23;20057;-80
2021/12/27 15:38:37;;;;;;;10.13;3.45;;;6.70;99.90;;;;;;6157556;23;20452;-79
2021/12/27 15:41:08;;;;;;;9.30;3.33;;;6.80;99.90;;;;;;6132582;23;20029;-79
2021/12/27 15:43:37;;;;;;;9.35;3.72;;;6.60;99.90;;;;;;6155564;23;20103;-79
2021/12/27 15:46:08;;;;;;;10.97;3.80;;;6.70;99.90;;;;;;6156810;23;20048;-78
2021/12/27 15:48:37;;;;;;;14.55;5.05;;;6.50;99.90;;;;;;6131184;23;20436;-79
2021/12/27 15:51:09;;;;;;;9.18;4.00;;;6.70;99.90;;;;;;6161394;23;20023;-80
2021/12/27 15:53:41;;;;;;;9.13;4.28;;;6.80;99.90;;;;;;6135535;23;20033;-80
2021/12/27 15:56:11;;;;;;;14.65;4.78;;;6.80;99.90;;;;;;6133722;23;20029;-78
2021/12/27 15:58:42;;;;;;;10.33;4.40;;;;;;;;;;6151904;23;20453;-79
2021/12/27 16:01:12;;;;;;;13.10;4.55;;;6.50;99.90;;;;;;6152573;23;20028;-78
2021/12/27 16:03:41;;;;;;;16.02;5.15;;;6.30;99.90;;;;;;6154357;23;20021;-78
2021/12/27 16:06:11;;;;;;;8.82;4.45;;;6.60;99.90;;;;;;6153979;23;20030;-78
2021/12/27 16:08:39;;;;;;;11.05;4.63;;;6.60;99.90;;;;;;6153782;23;20053;-78
2021/12/27 16:11:08;;;;;;;9.70;3.77;;;6.60;99.90;;;;;;6154195;23;20465;-78
2021/12/27 16:13:38;;;;;;;12.15;4.40;;;6.60;99.90;;;;;;6154272;23;20060;-78
2021/12/27 16:16:32;;;;;;;10.73;4.25;;;6.50;99.90;;;;;;6127462;23;20785;-77
2021/12/27 16:19:01;;;;;;;11.63;4.28;;;6.20;99.90;;;;;;6127896;23;20021;-78
2021/12/27 16:21:31;;;;;;;12.98;4.90;;;6.30;99.90;;;;;;6126714;23;20823;-78
2021/12/27 16:24:01;;;;;;;16.67;5.53;;;6.50;99.90;;;;;;6153406;23;20018;-78
2021/12/27 16:26:30;;;;;;;16.23;5.53;;;6.50;99.90;;;;;;6103644;23;20096;-78
2021/12/27 16:28:58;;;;;;;11.52;4.65;;;6.50;99.90;;;;;;6153765;23;20077;-78
2021/12/27 16:31:28;;;;;;;18.67;6.80;;;6.50;99.90;;;;;;6153790;23;20101;-77
2021/12/27 16:33:57;;;;;;;13.85;4.88;;;6.40;99.90;;;;;;6153502;23;20026;-78
2021/12/27 16:36:26;;;;;;;14.07;4.87;;;6.30;99.90;;;;;;6154306;23;20084;-78
2021/12/27 16:38:56;;;;;;;13.40;5.25;;;6.40;99.90;;;;;;6154885;23;20022;-78
2021/12/27 16:41:24;;;;;;;14.43;6.07;;;6.10;99.90;;;;;;6104977;23;20030;-78
2021/12/27 16:43:53;;;;;;;12.50;5.55;;;6.10;99.90;;;;;;6155667;23;20413;-79
2021/12/27 16:46:21;;;;;;;11.90;5.53;;;6.20;99.90;;;;;;6133438;23;20025;-79
2021/12/27 16:48:49;;;;;;;13.43;5.50;;;6.20;99.90;;;;;;6166052;23;20048;-80
2021/12/27 16:51:18;;;;;;;13.30;6.00;;;6.00;99.90;;;;;;6123781;23;20033;-80
2021/12/27 17:00:07;;;;;;;15.90;5.45;;;6.20;99.90;;;;;;6235147;23;20016;-80
2021/12/27 17:02:36;;;;;;;11.73;5.70;;;5.90;99.90;;;;;;6211594;23;20031;-81
2021/12/27 17:05:05;;;;;;;13.75;5.95;;;6.00;99.90;;;;;;6204290;23;20052;-80
2021/12/27 17:07:33;;;;;;;16.10;6.38;;;6.00;99.90;;;;;;6211443;23;20451;-80
2021/12/27 17:10:02;;;;;;;15.15;7.05;;;5.80;99.90;;;;;;6199473;23;20032;-80
2021/12/27 17:12:30;;;;;;;13.07;5.18;;;5.90;99.90;;;;;;6185920;23;20008;-80
2021/12/27 17:14:59;;;;;;;13.97;5.60;;;6.00;99.90;;;;;;6207987;23;20029;-80
2021/12/27 17:17:28;;;;;;;16.73;6.57;;;6.00;99.90;;;;;;6203371;23;20020;-79
2021/12/27 17:20:22;;;;;;;17.20;5.95;;;6.00;99.90;;;;;;6204000;23;20020;-79
2021/12/27 17:22:52;;;;;;;13.23;6.95;;;6.10;99.90;;;;;;6178932;23;20360;-79
2021/12/27 17:25:31;;;;;;;16.85;7.38;;;6.10;99.90;;;;;;6188958;23;20078;-81
2021/12/27 17:29:17;;;;;;;12.17;6.07;;;6.10;99.90;;;;;;6100395;23;20013;-81
2021/12/27 17:48:20;;;;;;;14.32;5.68;;;5.90;99.90;;;;;;6269630;22;20020;-79
2021/12/27 17:51:09;;;;;;;14.05;6.63;;;5.90;99.90;;;;;;6267692;23;20133;-80
2021/12/27 17:53:39;;;;;;;16.13;6.38;;;5.80;99.90;;;;;;6266529;23;20556;-76
2021/12/27 17:56:07;;;;;;;15.90;5.97;;;5.80;99.90;;;;;;6263070;23;20021;-79
2021/12/27 17:58:36;;;;;;;16.07;6.67;;;5.90;99.90;;;;;;6215638;23;20024;-79
2021/12/27 18:01:08;;;;;;;17.50;5.57;;;6.00;99.90;;;;;;6260643;23;20039;-80
2021/12/27 18:03:37;;;;;;;12.95;5.85;;;5.80;99.90;;;;;;6260034;23;20098;-80
2021/12/27 18:06:08;;;;;;;16.15;6.45;;;5.80;99.90;;;;;;6253518;23;20020;-80
2021/12/27 18:08:37;;;;;;;13.80;5.22;;;5.70;99.90;;;;;;6225094;23;20016;-80
2021/12/27 18:11:09;;;;;;;14.60;6.63;;;5.70;99.90;;;;;;6255902;23;20083;-80
2021/12/27 18:13:39;;;;;;;17.35;6.35;;;5.70;99.90;;;;;;6264510;23;20194;-81
2021/12/27 18:16:12;;;;;;;15.30;6.68;;;5.60;99.90;;;;;;6255162;23;20089;-79
2021/12/27 18:18:42;;;;;;;20.40;6.78;;;5.70;99.90;;;;;;6246657;23;20024;-79
2021/12/27 18:21:11;;;;;;;12.52;5.88;;;5.70;99.90;;;;;;6249521;23;20020;-80
2021/12/27 18:23:40;;;;;;;13.83;6.70;;;5.60;99.90;;;;;;6248618;23;20016;-79
2021/12/27 18:26:09;;;;;;;11.55;5.55;;;5.70;99.90;;;;;;6250492;23;20083;-80
2021/12/27 18:28:38;;;;;;;14.52;6.18;;;5.60;99.90;;;;;;6251244;23;20100;-80
2021/12/27 18:31:08;;;;;;;15.48;6.13;;;5.50;99.90;;;;;;6249419;23;20016;-79
2021/12/27 18:33:37;;;;;;;13.38;6.32;;;5.40;99.90;;;;;;6246595;23;20099;-80
2021/12/27 18:36:08;;;;;;;13.23;6.43;;;5.20;99.90;;;;;;6249341;23;20362;-80
2021/12/27 18:38:38;;;;;;;13.57;5.07;;;5.30;99.90;;;;;;6249655;23;20074;-80
2021/12/27 18:41:07;;;;;;;13.18;5.05;;;5.10;99.90;;;;;;6253169;23;20070;-80
2021/12/27 18:43:35;;;;;;;11.65;5.05;;;5.20;99.90;;;;;;6254053;23;20048;-80
2021/12/27 18:46:06;;;;;;;13.10;6.22;;;5.20;99.90;;;;;;6247697;23;20350;-80
2021/12/27 18:48:37;;;;;;;17.17;6.30;;;5.30;99.90;;;;;;6247808;23;20085;-80
2021/12/27 18:51:09;;;;;;;17.85;5.90;;;5.10;99.90;;;;;;6248917;23;20031;-80
2021/12/27 18:53:38;;;;;;;14.07;5.90;;;5.30;99.90;;;;;;6228337;22;20024;-80
2021/12/27 18:56:12;;;;;;;19.02;6.82;;;5.30;99.90;;;;;;6248237;23;20012;-80
2021/12/27 18:58:42;;;;;;;16.48;6.07;;;5.40;99.90;;;;;;6247691;23;20020;-79
2021/12/27 19:01:11;;;;;;;14.37;6.80;;;5.30;99.90;;;;;;6250916;23;20028;-79
2021/12/27 19:03:41;;;;;;;15.63;6.95;;;5.30;99.90;;;;;;6258092;22;20020;-80
2021/12/27 19:06:11;;;;;;;17.55;6.47;;;5.30;99.90;;;;;;6222190;23;20028;-80
2021/12/27 19:08:46;;;;;;;17.10;6.63;;;5.40;99.90;;;;;;6246553;23;20445;-80
2021/12/27 19:11:15;;;;;;;21.15;7.53;;;5.30;99.90;;;;;;6250799;23;20054;-80
2021/12/27 19:13:45;;;;;;;13.00;6.33;;;5.40;99.90;;;;;;6245752;23;20447;-80
2021/12/27 19:16:17;;;;;;;13.65;6.65;;;5.50;99.90;;;;;;6245431;23;20343;-80
2021/12/27 19:18:47;;;;;;;16.20;6.78;;;5.40;99.90;;;;;;6246345;23;20355;-80
2021/12/27 19:21:18;;;;;;;16.83;6.57;;;5.50;99.90;;;;;;6221606;23;20016;-80
2021/12/27 19:23:48;;;;;;;14.25;6.75;;;5.60;99.90;;;;;;6249951;23;20082;-80
2021/12/27 19:26:19;;;;;;;14.63;7.73;;;5.50;99.90;;;;;;6248457;23;20024;-79
2021/12/27 19:28:47;;;;;;;14.55;5.85;;;5.40;99.90;;;;;;6219700;23;20020;-80
2021/12/27 19:31:16;;;;;;;15.65;6.88;;;5.40;99.90;;;;;;6246023;23;20024;-79
2021/12/27 19:33:45;;;;;;;22.13;6.85;;;5.50;99.90;;;;;;6244657;23;20028;-79
2021/12/27 19:36:14;;;;;;;20.05;6.70;;;5.50;99.90;;;;;;6244674;23;20024;-80
2021/12/27 19:38:42;;;;;;;17.90;6.80;;;5.30;99.90;;;;;;6247536;23;20026;-80
2021/12/27 19:41:11;;;;;;;17.98;7.75;;;5.30;99.90;;;;;;6248529;23;20107;-80
2021/12/27 19:43:40;;;;;;;14.77;7.10;;;5.40;99.90;;;;;;6224611;23;20107;-79
2021/12/27 19:46:09;;;;;;;20.20;8.40;;;5.50;99.90;;;;;;6218608;23;20028;-80
2021/12/27 19:48:38;;;;;;;19.80;8.75;;;5.40;99.90;;;;;;6218045;23;20024;-79
2021/12/27 19:51:10;;;;;;;17.03;8.63;;;5.10;99.90;;;;;;6245172;23;20012;-80
2021/12/27 19:53:41;;;;;;;16.63;7.07;;;5.30;99.90;;;;;;6247036;23;20086;-80
2021/12/27 19:56:13;;;;;;;17.35;8.40;;;5.30;99.90;;;;;;6222423;23;20062;-80
2021/12/27 19:58:41;;;;;;;20.48;8.35;;;5.20;99.90;;;;;;6253780;23;20024;-80
2021/12/27 20:01:12;;;;;;;17.27;7.25;;;5.20;99.90;;;;;;6247522;23;20024;-80
2021/12/27 20:03:41;;;;;;;19.07;7.40;;;5.20;99.90;;;;;;6251016;23;20020;-80
2021/12/27 20:06:09;;;;;;;15.68;7.68;;;5.40;99.90;;;;;;6253597;23;20023;-80
2021/12/27 20:08:38;;;;;;;22.70;7.25;;;5.50;99.90;;;;;;6250830;23;20026;-80
2021/12/27 20:11:09;;;;;;;18.50;7.07;;;5.60;99.90;;;;;;6249153;23;20031;-80
2021/12/27 20:13:39;;;;;;;18.35;7.70;;;5.40;99.90;;;;;;6257395;23;20463;-80
2021/12/27 20:16:09;;;;;;;22.90;7.90;;;5.20;99.90;;;;;;6252575;23;20026;-80
2021/12/27 20:18:37;;;;;;;26.08;10.50;;;5.40;99.90;;;;;;6254066;23;20024;-81
2021/12/27 20:21:08;;;;;;;17.60;6.85;;;5.40;99.90;;;;;;6252622;23;20020;-81
2021/12/27 20:23:37;;;;;;;18.50;6.40;;;5.40;99.90;;;;;;6253072;23;20074;-80
2021/12/27 20:26:11;;;;;;;21.52;7.90;;;5.50;99.90;;;;;;6245927;23;20081;-80
2021/12/27 20:28:40;;;;;;;26.43;7.53;;;5.40;99.90;;;;;;6246382;23;20020;-79
2021/12/27 20:31:12;;;;;;;18.08;7.72;;;5.40;99.90;;;;;;6246090;23;20039;-80
2021/12/27 20:33:41;;;;;;;23.65;9.68;;;5.40;99.90;;;;;;6246371;23;20020;-79
2021/12/27 20:36:09;;;;;;;15.52;6.75;;;5.50;99.90;;;;;;6244389;23;20035;-79
2021/12/27 20:38:38;;;;;;;23.25;8.45;;;5.50;99.90;;;;;;6244955;23;20026;-80
2021/12/27 20:41:10;;;;;;;13.80;6.23;;;5.50;99.90;;;;;;6246287;23;20021;-79
2021/12/27 20:43:40;;;;;;;16.15;6.88;;;5.50;99.90;;;;;;6245090;23;20024;-80
2021/12/27 20:46:09;;;;;;;19.88;7.97;;;5.50;99.90;;;;;;6242737;23;20035;-79
2021/12/27 20:48:38;;;;;;;19.40;8.90;;;5.50;99.90;;;;;;6245252;23;20035;-79
2021/12/27 20:51:10;;;;;;;19.33;8.75;;;5.60;99.90;;;;;;6244171;23;20024;-79
2021/12/27 20:53:40;;;;;;;19.03;7.83;;;5.40;99.90;;;;;;6246271;23;20187;-79
2021/12/27 20:56:11;;;;;;;16.30;8.23;;;5.30;99.90;;;;;;6241736;23;20020;-79
2021/12/27 20:58:39;;;;;;;23.70;8.45;;;5.40;99.90;;;;;;6242289;23;20028;-79
2021/12/27 21:01:07;;;;;;;20.63;7.80;;;5.30;99.90;;;;;;6245088;22;20031;-80
2021/12/27 21:03:36;;;;;;;23.20;7.78;;;5.30;99.90;;;;;;6247961;23;20439;-78
2021/12/27 21:06:09;;;;;;;17.17;6.13;;;5.30;99.90;;;;;;6241267;23;20035;-78
2021/12/27 21:09:04;;;;;;;21.98;8.48;;;5.30;99.90;;;;;;6240968;23;20021;-78
2021/12/27 21:11:36;;;;;;;19.02;8.73;;;5.40;99.90;;;;;;6254847;23;20024;-80
2021/12/27 21:14:05;;;;;;;23.48;7.70;;;5.30;99.90;;;;;;6245775;23;20304;-79
2021/12/27 21:16:35;;;;;;;31.20;9.15;;;5.50;99.90;;;;;;6247324;23;20081;-79
2021/12/27 21:19:07;;;;;;;16.93;7.10;;;5.50;99.90;;;;;;6219244;23;20094;-79
2021/12/27 21:21:36;;;;;;;17.98;7.25;;;5.60;99.90;;;;;;6218955;23;20027;-80
2021/12/27 21:24:07;;;;;;;20.52;9.55;;;5.50;99.90;;;;;;6252848;23;20084;-80
2021/12/27 21:26:37;;;;;;;20.05;7.93;;;5.50;99.90;;;;;;6249892;23;20023;-80
2021/12/27 21:29:07;;;;;;;19.35;7.55;;;5.20;99.90;;;;;;6247471;23;20047;-81
2021/12/27 21:31:36;;;;;;;15.67;6.63;;;5.30;99.90;;;;;;6252420;23;20019;-80
2021/12/27 21:34:04;;;;;;;20.83;8.15;;;5.40;99.90;;;;;;6255559;23;20027;-79
2021/12/27 21:36:32;;;;;;;18.27;8.10;;;5.50;99.90;;;;;;6219903;23;20119;-79
2021/12/27 21:39:00;;;;;;;17.70;7.20;;;5.50;99.90;;;;;;6248283;23;20041;-80
2021/12/27 21:41:28;;;;;;;17.15;8.45;;;5.50;99.90;;;;;;6249855;23;20027;-79
2021/12/27 21:43:59;;;;;;;14.43;6.83;;;5.40;99.90;;;;;;6246532;23;20095;-79
2021/12/27 21:46:27;;;;;;;21.63;8.45;;;5.50;99.90;;;;;;6243573;23;20024;-78
2021/12/27 21:48:57;;;;;;;15.75;6.85;;;5.50;99.90;;;;;;6245761;23;20017;-79
2021/12/27 21:51:27;;;;;;;23.73;9.13;;;5.50;99.90;;;;;;6245811;23;20028;-79
2021/12/27 21:53:56;;;;;;;19.92;7.40;;;5.40;99.90;;;;;;6245405;23;20465;-79
2021/12/27 21:56:25;;;;;;;17.83;8.23;;;5.30;99.90;;;;;;6243375;23;20103;-79
2021/12/27 21:58:53;;;;;;;25.63;8.57;;;5.40;99.90;;;;;;6243677;23;20021;-78
2021/12/27 22:01:23;;;;;;;19.23;8.82;;;5.40;99.90;;;;;;6243522;23;20024;-78
2021/12/27 22:03:51;;;;;;;23.58;8.93;;;5.50;99.90;;;;;;6245943;23;20081;-79
2021/12/27 22:06:19;;;;;;;23.65;8.32;;;5.40;99.90;;;;;;6244183;23;20115;-79
2021/12/27 22:08:47;;;;;;;14.03;7.50;;;5.50;99.90;;;;;;6246030;23;20023;-79
2021/12/27 22:11:16;;;;;;;17.10;7.32;;;5.60;99.90;;;;;;6246345;23;20095;-79
2021/12/27 22:13:44;;;;;;;16.65;8.05;;;5.60;99.90;;;;;;6218664;23;20024;-79
2021/12/27 22:16:13;;;;;;;19.30;8.02;;;5.40;99.90;;;;;;6247461;23;20020;-80
2021/12/27 22:18:43;;;;;;;16.63;8.20;;;5.50;99.90;;;;;;6249205;23;20024;-80
2021/12/27 22:21:12;;;;;;;16.00;7.40;;;5.50;99.90;;;;;;6247747;23;20024;-79
2021/12/27 22:23:42;;;;;;;19.67;7.32;;;5.10;99.90;;;;;;6247248;23;20026;-79
2021/12/27 22:26:10;;;;;;;18.25;7.97;;;5.00;99.90;;;;;;6245137;23;20023;-79
2021/12/27 22:28:41;;;;;;;23.67;9.25;;;5.00;99.90;;;;;;6249580;23;20070;-80
2021/12/27 22:31:10;;;;;;;18.63;7.95;;;5.00;99.90;;;;;;6246746;23;20076;-80
2021/12/27 22:33:39;;;;;;;13.67;7.60;;;5.10;99.90;;;;;;6248387;23;20016;-79
2021/12/27 22:36:09;;;;;;;21.58;9.35;;;4.90;99.90;;;;;;6247864;23;20024;-80
2021/12/27 22:38:37;;;;;;;27.98;10.43;;;5.00;99.90;;;;;;6254555;23;20027;-81
2021/12/27 22:41:07;;;;;;;16.50;8.05;;;5.00;99.90;;;;;;6249060;23;20024;-79
2021/12/27 22:43:36;;;;;;;17.88;7.10;;;5.10;99.90;;;;;;6253162;23;20024;-80
2021/12/27 22:46:08;;;;;;;19.13;7.83;;;5.30;99.90;;;;;;6261012;23;20064;-80
2021/12/27 22:48:37;;;;;;;17.77;8.20;;;5.40;99.90;;;;;;6253755;23;20028;-80
2021/12/27 22:51:10;;;;;;;15.65;6.65;;;5.30;99.90;;;;;;6249332;23;20067;-80
2021/12/27 22:53:39;;;;;;;22.60;7.95;;;5.40;99.90;;;;;;6247137;23;20047;-80
2021/12/27 22:56:10;;;;;;;21.73;8.13;;;5.40;99.90;;;;;;6253918;23;20022;-80
2021/12/27 22:58:39;;;;;;;21.47;8.93;;;5.50;99.90;;;;;;6252253;23;20430;-80
2021/12/27 23:01:11;;;;;;;14.98;7.13;;;5.50;99.90;;;;;;6252457;23;20035;-80
2021/12/27 23:03:42;;;;;;;22.90;7.93;;;5.60;99.90;;;;;;6245257;23;20095;-79
2021/12/27 23:06:14;;;;;;;18.13;9.18;;;5.60;99.90;;;;;;6243981;23;20093;-79
2021/12/27 23:08:43;;;;;;;24.33;8.25;;;5.70;99.90;;;;;;6244370;23;20024;-79
2021/12/27 23:11:12;;;;;;;21.60;7.97;;;5.70;99.90;;;;;;6244016;23;20721;-79